Terminal Aerodrome Forecast
Issued by NWS Houston/Galveston TX

Home | Current Version | Previous Version | Text Only | Print | Product List | Glossary On
Versions: 1 2 3 4 5 6 7 8 9 10 11 12 13 14 15 16 17 18 19 20 21 22 23 24 25 26 27 28
000
FTUS44 KHGX 220527
TAFHOU
TAF
KHOU 220527Z 2206/2306 VRB08KT 5SM SHRA BR VCTS BKN012CB OVC016
     FM220700 VRB05KT P6SM VCSH BKN015 BKN035
     FM220900 31010KT P6SM BKN015
     FM221600 33011G17KT P6SM FEW020 BKN250
     FM222300 35006KT P6SM SCT250=

USA.gov is the U.S. government's official web portal to all federal, state and local government web resources and services.